sensor_id;sensor_type;location;lat;lon;timestamp;pressure;altitude;pressure_sealevel;temperature;humidity
28027;BME280;15344;52.342;-1.290;2023-05-22T00:01:46;100808.87;;;15.65;49.60
28027;BME280;15344;52.342;-1.290;2023-05-22T00:04:11;100809.32;;;16.08;51.33
28027;BME280;15344;52.342;-1.290;2023-05-22T00:06:36;100805.65;;;16.10;51.01
28027;BME280;15344;52.342;-1.290;2023-05-22T00:09:02;100803.36;;;16.00;50.33
28027;BME280;15344;52.342;-1.290;2023-05-22T00:11:28;100801.53;;;16.71;49.34
28027;BME280;15344;52.342;-1.290;2023-05-22T00:13:53;100799.43;;;16.69;49.89
28027;BME280;15344;52.342;-1.290;2023-05-22T00:16:19;100800.90;;;16.29;50.73
28027;BME280;15344;52.342;-1.290;2023-05-22T00:18:44;100797.82;;;15.18;52.74
28027;BME280;15344;52.342;-1.290;2023-05-22T00:21:10;100798.12;;;16.50;52.27
28027;BME280;15344;52.342;-1.290;2023-05-22T00:23:35;100793.20;;;15.25;54.86
28027;BME280;15344;52.342;-1.290;2023-05-22T00:26:00;100793.04;;;12.87;60.23
28027;BME280;15344;52.342;-1.290;2023-05-22T00:28:27;100791.64;;;14.89;56.94
28027;BME280;15344;52.342;-1.290;2023-05-22T00:30:52;100790.13;;;16.03;53.65
28027;BME280;15344;52.342;-1.290;2023-05-22T00:33:17;100787.79;;;15.29;54.35
28027;BME280;15344;52.342;-1.290;2023-05-22T00:35:42;100785.63;;;13.80;59.20
28027;BME280;15344;52.342;-1.290;2023-05-22T00:38:08;100781.55;;;14.74;57.20
28027;BME280;15344;52.342;-1.290;2023-05-22T00:40:34;100784.72;;;14.33;58.96
28027;BME280;15344;52.342;-1.290;2023-05-22T00:43:00;100781.72;;;14.68;58.16
28027;BME280;15344;52.342;-1.290;2023-05-22T00:45:25;100779.09;;;15.43;57.07
28027;BME280;15344;52.342;-1.290;2023-05-22T00:47:50;100781.25;;;15.55;55.39
28027;BME280;15344;52.342;-1.290;2023-05-22T00:50:17;100787.90;;;16.50;55.45
28027;BME280;15344;52.342;-1.290;2023-05-22T00:52:42;100784.31;;;15.52;58.28
28027;BME280;15344;52.342;-1.290;2023-05-22T00:55:08;100781.89;;;17.44;54.01
28027;BME280;15344;52.342;-1.290;2023-05-22T00:57:32;100785.65;;;17.15;55.32
28027;BME280;15344;52.342;-1.290;2023-05-22T00:59:59;100790.59;;;16.57;55.39
28027;BME280;15344;52.342;-1.290;2023-05-22T01:02:24;100789.47;;;16.71;55.53
28027;BME280;15344;52.342;-1.290;2023-05-22T01:04:49;100793.04;;;16.85;55.78
28027;BME280;15344;52.342;-1.290;2023-05-22T01:07:15;100791.46;;;16.76;56.00
28027;BME280;15344;52.342;-1.290;2023-05-22T01:09:39;100790.53;;;16.82;57.10
28027;BME280;15344;52.342;-1.290;2023-05-22T01:12:10;100785.75;;;16.90;54.72
28027;BME280;15344;52.342;-1.290;2023-05-22T01:14:43;100777.62;;;15.63;56.71
28027;BME280;15344;52.342;-1.290;2023-05-22T01:17:01;100780.16;;;16.43;56.56
28027;BME280;15344;52.342;-1.290;2023-05-22T01:19:36;100773.84;;;17.04;56.00
28027;BME280;15344;52.342;-1.290;2023-05-22T01:21:54;100776.03;;;15.99;55.38
28027;BME280;15344;52.342;-1.290;2023-05-22T01:24:23;100772.87;;;17.05;55.20
28027;BME280;15344;52.342;-1.290;2023-05-22T01:26:48;100770.26;;;16.80;53.74
28027;BME280;15344;52.342;-1.290;2023-05-22T01:29:14;100771.39;;;15.39;57.28
28027;BME280;15344;52.342;-1.290;2023-05-22T01:31:30;100766.24;;;15.50;58.97
28027;BME280;15344;52.342;-1.290;2023-05-22T01:33:56;100765.10;;;14.01;62.51
28027;BME280;15344;52.342;-1.290;2023-05-22T01:36:21;100757.46;;;14.62;61.07
28027;BME280;15344;52.342;-1.290;2023-05-22T01:38:45;100758.06;;;16.34;57.36
28027;BME280;15344;52.342;-1.290;2023-05-22T01:41:11;100761.12;;;16.33;58.19
28027;BME280;15344;52.342;-1.290;2023-05-22T01:43:37;100755.76;;;16.06;57.34
28027;BME280;15344;52.342;-1.290;2023-05-22T01:46:01;100751.84;;;16.01;56.52
28027;BME280;15344;52.342;-1.290;2023-05-22T01:48:26;100744.69;;;16.77;55.48
28027;BME280;15344;52.342;-1.290;2023-05-22T01:50:52;100743.98;;;16.95;54.11
28027;BME280;15344;52.342;-1.290;2023-05-22T01:53:21;100748.57;;;15.87;55.10
28027;BME280;15344;52.342;-1.290;2023-05-22T01:55:47;100748.64;;;15.33;57.24
28027;BME280;15344;52.342;-1.290;2023-05-22T01:58:13;100752.69;;;15.82;57.63
28027;BME280;15344;52.342;-1.290;2023-05-22T02:00:34;100754.49;;;15.72;58.37
28027;BME280;15344;52.342;-1.290;2023-05-22T02:03:02;100754.50;;;16.08;56.62
28027;BME280;15344;52.342;-1.290;2023-05-22T02:05:25;100755.41;;;15.46;58.03
28027;BME280;15344;52.342;-1.290;2023-05-22T02:07:49;100760.45;;;14.64;60.50
28027;BME280;15344;52.342;-1.290;2023-05-22T02:10:15;100755.51;;;14.62;59.87
28027;BME280;15344;52.342;-1.290;2023-05-22T02:12:41;100754.46;;;15.04;59.28
28027;BME280;15344;52.342;-1.290;2023-05-22T02:15:07;100756.27;;;13.85;62.60
28027;BME280;15344;52.342;-1.290;2023-05-22T02:17:36;100753.41;;;13.96;63.52
28027;BME280;15344;52.342;-1.290;2023-05-22T02:19:58;100748.95;;;13.52;62.23
28027;BME280;15344;52.342;-1.290;2023-05-22T02:22:24;100748.45;;;14.06;62.87
28027;BME280;15344;52.342;-1.290;2023-05-22T02:24:50;100747.90;;;14.91;60.81
28027;BME280;15344;52.342;-1.290;2023-05-22T02:27:15;100748.52;;;15.45;59.72
28027;BME280;15344;52.342;-1.290;2023-05-22T02:29:41;100746.46;;;15.33;59.76
28027;BME280;15344;52.342;-1.290;2023-05-22T02:32:07;100742.00;;;15.51;58.05
28027;BME280;15344;52.342;-1.290;2023-05-22T02:34:32;100741.53;;;15.21;58.64
28027;BME280;15344;52.342;-1.290;2023-05-22T02:36:58;100741.10;;;15.74;58.24
28027;BME280;15344;52.342;-1.290;2023-05-22T02:39:23;100744.32;;;16.27;56.77
28027;BME280;15344;52.342;-1.290;2023-05-22T02:41:48;100744.11;;;15.14;58.48
28027;BME280;15344;52.342;-1.290;2023-05-22T02:44:14;100748.10;;;15.78;57.55
28027;BME280;15344;52.342;-1.290;2023-05-22T02:46:39;100751.38;;;16.32;57.12
28027;BME280;15344;52.342;-1.290;2023-05-22T02:49:04;100749.19;;;15.93;56.69
28027;BME280;15344;52.342;-1.290;2023-05-22T02:51:30;100749.20;;;16.69;55.80
28027;BME280;15344;52.342;-1.290;2023-05-22T02:53:55;100747.15;;;17.19;54.51
28027;BME280;15344;52.342;-1.290;2023-05-22T02:56:20;100743.70;;;14.80;57.90
28027;BME280;15344;52.342;-1.290;2023-05-22T02:58:46;100745.05;;;15.44;57.35
28027;BME280;15344;52.342;-1.290;2023-05-22T03:01:11;100743.49;;;16.17;56.95
28027;BME280;15344;52.342;-1.290;2023-05-22T03:03:37;100737.80;;;15.90;57.93
28027;BME280;15344;52.342;-1.290;2023-05-22T03:06:02;100737.02;;;15.80;56.83
28027;BME280;15344;52.342;-1.290;2023-05-22T03:08:27;100738.63;;;15.95;56.92
28027;BME280;15344;52.342;-1.290;2023-05-22T03:10:53;100737.60;;;16.30;55.03
28027;BME280;15344;52.342;-1.290;2023-05-22T03:13:18;100740.48;;;15.77;55.43
28027;BME280;15344;52.342;-1.290;2023-05-22T03:15:43;100737.69;;;15.28;59.43
28027;BME280;15344;52.342;-1.290;2023-05-22T03:18:09;100738.51;;;15.97;56.84
28027;BME280;15344;52.342;-1.290;2023-05-22T03:20:34;100734.09;;;16.75;54.79
28027;BME280;15344;52.342;-1.290;2023-05-22T03:22:59;100737.39;;;15.59;56.71
28027;BME280;15344;52.342;-1.290;2023-05-22T03:25:25;100736.09;;;14.31;60.44
28027;BME280;15344;52.342;-1.290;2023-05-22T03:27:50;100740.18;;;15.29;59.00
28027;BME280;15344;52.342;-1.290;2023-05-22T03:30:15;100741.70;;;15.68;57.94
28027;BME280;15344;52.342;-1.290;2023-05-22T03:32:40;100741.66;;;15.03;59.83
28027;BME280;15344;52.342;-1.290;2023-05-22T03:35:06;100739.30;;;15.24;58.78
28027;BME280;15344;52.342;-1.290;2023-05-22T03:37:31;100741.50;;;13.66;61.78
28027;BME280;15344;52.342;-1.290;2023-05-22T03:39:56;100737.69;;;15.25;59.34
28027;BME280;15344;52.342;-1.290;2023-05-22T03:42:22;100739.31;;;16.19;57.66
28027;BME280;15344;52.342;-1.290;2023-05-22T03:44:47;100732.99;;;14.93;61.17
28027;BME280;15344;52.342;-1.290;2023-05-22T03:47:13;100732.67;;;15.11;60.42
28027;BME280;15344;52.342;-1.290;2023-05-22T03:49:38;100733.84;;;14.24;61.41
28027;BME280;15344;52.342;-1.290;2023-05-22T03:52:04;100733.88;;;14.83;60.74
28027;BME280;15344;52.342;-1.290;2023-05-22T03:54:29;100735.76;;;14.37;61.02
28027;BME280;15344;52.342;-1.290;2023-05-22T03:56:54;100735.02;;;15.37;58.86
28027;BME280;15344;52.342;-1.290;2023-05-22T03:59:19;100732.95;;;14.24;60.67
28027;BME280;15344;52.342;-1.290;2023-05-22T04:01:45;100732.93;;;13.73;61.37
28027;BME280;15344;52.342;-1.290;2023-05-22T04:04:10;100731.63;;;13.89;60.91
28027;BME280;15344;52.342;-1.290;2023-05-22T04:06:36;100735.57;;;14.01;65.59
28027;BME280;15344;52.342;-1.290;2023-05-22T04:09:01;100732.66;;;13.95;62.81
28027;BME280;15344;52.342;-1.290;2023-05-22T04:11:27;100731.69;;;13.63;63.14
28027;BME280;15344;52.342;-1.290;2023-05-22T04:13:53;100728.02;;;14.58;60.91
28027;BME280;15344;52.342;-1.290;2023-05-22T04:16:19;100729.97;;;13.84;63.75
28027;BME280;15344;52.342;-1.290;2023-05-22T04:18:44;100732.09;;;13.38;63.63
28027;BME280;15344;52.342;-1.290;2023-05-22T04:21:10;100733.15;;;13.51;61.24
28027;BME280;15344;52.342;-1.290;2023-05-22T04:23:35;100725.63;;;13.42;65.22
28027;BME280;15344;52.342;-1.290;2023-05-22T04:26:01;100728.43;;;13.41;63.39
28027;BME280;15344;52.342;-1.290;2023-05-22T04:28:26;100732.12;;;13.39;62.24
28027;BME280;15344;52.342;-1.290;2023-05-22T04:30:51;100730.78;;;14.15;63.10
28027;BME280;15344;52.342;-1.290;2023-05-22T04:33:17;100735.03;;;14.07;62.05
28027;BME280;15344;52.342;-1.290;2023-05-22T04:35:43;100736.62;;;13.40;62.13
28027;BME280;15344;52.342;-1.290;2023-05-22T04:38:08;100735.88;;;13.77;61.10
28027;BME280;15344;52.342;-1.290;2023-05-22T04:40:33;100733.76;;;14.41;60.09
28027;BME280;15344;52.342;-1.290;2023-05-22T04:42:59;100731.61;;;14.40;59.35
28027;BME280;15344;52.342;-1.290;2023-05-22T04:45:24;100730.83;;;14.83;59.20
28027;BME280;15344;52.342;-1.290;2023-05-22T04:47:49;100732.36;;;15.15;56.88
28027;BME280;15344;52.342;-1.290;2023-05-22T04:50:14;100739.13;;;13.36;59.09
28027;BME280;15344;52.342;-1.290;2023-05-22T04:52:40;100735.72;;;14.63;57.47
28027;BME280;15344;52.342;-1.290;2023-05-22T04:55:06;100735.69;;;15.08;56.26
28027;BME280;15344;52.342;-1.290;2023-05-22T04:57:31;100735.48;;;13.76;59.67
28027;BME280;15344;52.342;-1.290;2023-05-22T04:59:57;100738.52;;;15.00;58.46
28027;BME280;15344;52.342;-1.290;2023-05-22T05:02:22;100735.64;;;15.39;56.51
28027;BME280;15344;52.342;-1.290;2023-05-22T05:04:48;100743.37;;;12.57;62.44
28027;BME280;15344;52.342;-1.290;2023-05-22T05:07:13;100743.55;;;14.02;61.44
28027;BME280;15344;52.342;-1.290;2023-05-22T05:09:38;100747.60;;;13.26;61.45
28027;BME280;15344;52.342;-1.290;2023-05-22T05:12:04;100749.80;;;13.12;61.25
28027;BME280;15344;52.342;-1.290;2023-05-22T05:14:28;100751.12;;;14.17;58.85
28027;BME280;15344;52.342;-1.290;2023-05-22T05:16:53;100756.04;;;14.91;56.76
28027;BME280;15344;52.342;-1.290;2023-05-22T05:19:19;100755.39;;;15.39;55.72
28027;BME280;15344;52.342;-1.290;2023-05-22T05:21:44;100753.42;;;15.31;54.86
28027;BME280;15344;52.342;-1.290;2023-05-22T05:24:09;100752.23;;;15.08;57.82
28027;BME280;15344;52.342;-1.290;2023-05-22T05:26:35;100754.08;;;14.41;57.22
28027;BME280;15344;52.342;-1.290;2023-05-22T05:29:01;100756.43;;;14.38;57.57
28027;BME280;15344;52.342;-1.290;2023-05-22T05:31:26;100760.15;;;14.28;58.25
28027;BME280;15344;52.342;-1.290;2023-05-22T05:33:52;100766.12;;;14.18;59.10
28027;BME280;15344;52.342;-1.290;2023-05-22T05:36:18;100771.19;;;13.85;58.97
28027;BME280;15344;52.342;-1.290;2023-05-22T05:38:43;100770.28;;;13.13;63.05
28027;BME280;15344;52.342;-1.290;2023-05-22T05:41:09;100771.15;;;15.49;57.57
28027;BME280;15344;52.342;-1.290;2023-05-22T05:43:34;100775.31;;;15.85;56.22
28027;BME280;15344;52.342;-1.290;2023-05-22T05:46:00;100781.72;;;15.15;57.48
28027;BME280;15344;52.342;-1.290;2023-05-22T05:48:25;100779.27;;;15.02;57.57
28027;BME280;15344;52.342;-1.290;2023-05-22T05:50:50;100781.23;;;15.95;57.47
28027;BME280;15344;52.342;-1.290;2023-05-22T05:53:15;100781.92;;;16.01;56.38
28027;BME280;15344;52.342;-1.290;2023-05-22T05:55:41;100776.47;;;15.62;55.43
28027;BME280;15344;52.342;-1.290;2023-05-22T05:58:06;100773.79;;;14.55;57.37
28027;BME280;15344;52.342;-1.290;2023-05-22T06:00:32;100770.66;;;13.36;60.81
28027;BME280;15344;52.342;-1.290;2023-05-22T06:02:57;100770.71;;;15.78;56.56
28027;BME280;15344;52.342;-1.290;2023-05-22T06:05:22;100772.79;;;15.13;57.22
28027;BME280;15344;52.342;-1.290;2023-05-22T06:07:48;100772.87;;;14.50;58.79
28027;BME280;15344;52.342;-1.290;2023-05-22T06:10:14;100774.34;;;13.52;58.83
28027;BME280;15344;52.342;-1.290;2023-05-22T06:12:39;100773.25;;;14.46;57.46
28027;BME280;15344;52.342;-1.290;2023-05-22T06:15:06;100770.04;;;14.71;57.23
28027;BME280;15344;52.342;-1.290;2023-05-22T06:17:30;100769.49;;;13.43;58.45
28027;BME280;15344;52.342;-1.290;2023-05-22T06:19:56;100774.33;;;14.01;56.83
28027;BME280;15344;52.342;-1.290;2023-05-22T06:22:21;100779.61;;;14.45;57.78
28027;BME280;15344;52.342;-1.290;2023-05-22T06:24:47;100774.92;;;15.00;55.61
28027;BME280;15344;52.342;-1.290;2023-05-22T06:27:13;100774.22;;;14.14;56.16
28027;BME280;15344;52.342;-1.290;2023-05-22T06:29:38;100774.32;;;15.10;61.26
28027;BME280;15344;52.342;-1.290;2023-05-22T06:32:04;100779.89;;;14.73;63.31
28027;BME280;15344;52.342;-1.290;2023-05-22T06:34:29;100782.69;;;14.74;63.86
28027;BME280;15344;52.342;-1.290;2023-05-22T06:36:54;100780.14;;;15.73;65.19
28027;BME280;15344;52.342;-1.290;2023-05-22T06:39:25;100785.36;;;16.11;62.72
28027;BME280;15344;52.342;-1.290;2023-05-22T06:41:46;100783.20;;;14.59;63.19
28027;BME280;15344;52.342;-1.290;2023-05-22T06:44:11;100787.01;;;13.50;65.39
28027;BME280;15344;52.342;-1.290;2023-05-22T06:46:36;100787.78;;;14.55;65.35
28027;BME280;15344;52.342;-1.290;2023-05-22T06:49:02;100790.16;;;15.12;63.07
28027;BME280;15344;52.342;-1.290;2023-05-22T06:51:27;100795.13;;;14.73;63.96
28027;BME280;15344;52.342;-1.290;2023-05-22T06:53:52;100793.93;;;13.58;62.46
28027;BME280;15344;52.342;-1.290;2023-05-22T06:56:18;100794.84;;;15.23;59.59
28027;BME280;15344;52.342;-1.290;2023-05-22T06:58:43;100796.14;;;15.65;59.01
28027;BME280;15344;52.342;-1.290;2023-05-22T07:01:09;100799.18;;;15.17;64.11
28027;BME280;15344;52.342;-1.290;2023-05-22T07:03:34;100802.39;;;14.37;62.18
28027;BME280;15344;52.342;-1.290;2023-05-22T07:06:00;100800.24;;;14.00;61.31
28027;BME280;15344;52.342;-1.290;2023-05-22T07:08:25;100802.12;;;13.32;68.86
28027;BME280;15344;52.342;-1.290;2023-05-22T07:10:50;100799.71;;;14.24;61.58
28027;BME280;15344;52.342;-1.290;2023-05-22T07:13:16;100803.78;;;14.04;62.23
28027;BME280;15344;52.342;-1.290;2023-05-22T07:15:41;100802.93;;;15.15;59.80
28027;BME280;15344;52.342;-1.290;2023-05-22T07:18:06;100801.35;;;14.44;61.25
28027;BME280;15344;52.342;-1.290;2023-05-22T07:20:32;100805.74;;;14.75;62.14
28027;BME280;15344;52.342;-1.290;2023-05-22T07:22:57;100805.41;;;14.91;60.65
28027;BME280;15344;52.342;-1.290;2023-05-22T07:25:23;100806.74;;;13.93;64.19
28027;BME280;15344;52.342;-1.290;2023-05-22T07:27:48;100807.59;;;15.22;63.34
28027;BME280;15344;52.342;-1.290;2023-05-22T07:30:14;100805.00;;;14.97;60.36
28027;BME280;15344;52.342;-1.290;2023-05-22T07:32:44;100804.73;;;14.93;59.69
28027;BME280;15344;52.342;-1.290;2023-05-22T07:35:05;100810.37;;;14.87;60.76
28027;BME280;15344;52.342;-1.290;2023-05-22T07:37:29;100811.45;;;15.52;58.24
28027;BME280;15344;52.342;-1.290;2023-05-22T07:39:55;100818.83;;;14.15;61.62
28027;BME280;15344;52.342;-1.290;2023-05-22T07:42:20;100821.67;;;15.35;59.20
28027;BME280;15344;52.342;-1.290;2023-05-22T07:44:46;100824.43;;;14.17;61.47
28027;BME280;15344;52.342;-1.290;2023-05-22T07:47:11;100828.03;;;14.44;61.60
28027;BME280;15344;52.342;-1.290;2023-05-22T07:49:37;100831.94;;;15.18;58.71
28027;BME280;15344;52.342;-1.290;2023-05-22T07:52:02;100831.00;;;14.23;62.14
28027;BME280;15344;52.342;-1.290;2023-05-22T07:54:27;100830.63;;;14.99;60.40
28027;BME280;15344;52.342;-1.290;2023-05-22T07:56:53;100828.62;;;15.46;57.34
28027;BME280;15344;52.342;-1.290;2023-05-22T07:59:19;100834.93;;;15.98;58.13
28027;BME280;15344;52.342;-1.290;2023-05-22T08:01:44;100840.67;;;16.05;55.94
28027;BME280;15344;52.342;-1.290;2023-05-22T08:04:09;100838.66;;;16.46;55.53
28027;BME280;15344;52.342;-1.290;2023-05-22T08:06:34;100839.97;;;15.60;57.25
28027;BME280;15344;52.342;-1.290;2023-05-22T08:09:00;100846.84;;;16.32;54.33
28027;BME280;15344;52.342;-1.290;2023-05-22T08:11:25;100844.83;;;15.26;56.39
28027;BME280;15344;52.342;-1.290;2023-05-22T08:13:50;100847.72;;;17.01;56.19
28027;BME280;15344;52.342;-1.290;2023-05-22T08:16:16;100845.15;;;17.20;57.21
28027;BME280;15344;52.342;-1.290;2023-05-22T08:18:42;100844.78;;;16.78;51.28
28027;BME280;15344;52.342;-1.290;2023-05-22T08:21:08;100848.78;;;15.36;53.86
28027;BME280;15344;52.342;-1.290;2023-05-22T08:23:32;100851.91;;;15.82;54.18
28027;BME280;15344;52.342;-1.290;2023-05-22T08:25:58;100860.95;;;17.66;51.75
28027;BME280;15344;52.342;-1.290;2023-05-22T08:28:23;100861.02;;;15.58;55.16
28027;BME280;15344;52.342;-1.290;2023-05-22T08:30:49;100860.57;;;18.06;54.62
28027;BME280;15344;52.342;-1.290;2023-05-22T08:33:13;100867.14;;;17.24;55.12
28027;BME280;15344;52.342;-1.290;2023-05-22T08:35:39;100867.44;;;16.14;56.07
28027;BME280;15344;52.342;-1.290;2023-05-22T08:38:04;100865.88;;;15.85;55.57
28027;BME280;15344;52.342;-1.290;2023-05-22T08:40:34;100861.94;;;15.58;55.65
28027;BME280;15344;52.342;-1.290;2023-05-22T08:42:54;100864.39;;;16.50;55.55
28027;BME280;15344;52.342;-1.290;2023-05-22T08:45:19;100861.48;;;16.89;51.72
28027;BME280;15344;52.342;-1.290;2023-05-22T08:47:49;100863.07;;;16.78;51.49
28027;BME280;15344;52.342;-1.290;2023-05-22T08:50:11;100865.50;;;19.04;51.86
28027;BME280;15344;52.342;-1.290;2023-05-22T08:52:41;100866.71;;;19.20;51.74
28027;BME280;15344;52.342;-1.290;2023-05-22T08:55:03;100864.95;;;18.08;49.90
28027;BME280;15344;52.342;-1.290;2023-05-22T08:57:26;100869.60;;;17.97;47.49
28027;BME280;15344;52.342;-1.290;2023-05-22T08:59:52;100869.19;;;19.34;47.17
28027;BME280;15344;52.342;-1.290;2023-05-22T09:02:16;100870.05;;;19.87;44.59
28027;BME280;15344;52.342;-1.290;2023-05-22T09:04:41;100868.29;;;19.33;45.97
28027;BME280;15344;52.342;-1.290;2023-05-22T09:07:07;100873.11;;;18.44;46.90
28027;BME280;15344;52.342;-1.290;2023-05-22T09:09:35;100869.26;;;18.57;48.00
28027;BME280;15344;52.342;-1.290;2023-05-22T09:11:57;100871.95;;;18.93;45.07
28027;BME280;15344;52.342;-1.290;2023-05-22T09:14:22;100868.73;;;17.78;46.78
28027;BME280;15344;52.342;-1.290;2023-05-22T09:16:49;100863.50;;;19.54;44.22
28027;BME280;15344;52.342;-1.290;2023-05-22T09:19:13;100862.98;;;19.33;44.41
28027;BME280;15344;52.342;-1.290;2023-05-22T09:21:38;100869.62;;;20.72;43.51
28027;BME280;15344;52.342;-1.290;2023-05-22T09:24:03;100869.32;;;17.93;46.95
28027;BME280;15344;52.342;-1.290;2023-05-22T09:26:28;100869.81;;;17.74;47.05
28027;BME280;15344;52.342;-1.290;2023-05-22T09:28:53;100870.98;;;18.10;48.08
28027;BME280;15344;52.342;-1.290;2023-05-22T09:31:18;100874.14;;;19.62;49.04
28027;BME280;15344;52.342;-1.290;2023-05-22T09:33:43;100880.02;;;18.97;48.09
28027;BME280;15344;52.342;-1.290;2023-05-22T09:36:09;100882.71;;;19.07;47.97
28027;BME280;15344;52.342;-1.290;2023-05-22T09:38:34;100877.00;;;17.74;47.94
28027;BME280;15344;52.342;-1.290;2023-05-22T09:40:59;100877.07;;;19.86;46.54
28027;BME280;15344;52.342;-1.290;2023-05-22T09:43:24;100879.71;;;19.75;47.52
28027;BME280;15344;52.342;-1.290;2023-05-22T09:45:49;100879.54;;;18.76;48.10
28027;BME280;15344;52.342;-1.290;2023-05-22T09:48:16;100876.75;;;19.08;47.83
28027;BME280;15344;52.342;-1.290;2023-05-22T09:50:39;100876.19;;;19.14;47.65
28027;BME280;15344;52.342;-1.290;2023-05-22T09:53:04;100872.24;;;19.61;47.16
28027;BME280;15344;52.342;-1.290;2023-05-22T09:55:30;100873.89;;;18.59;47.37
28027;BME280;15344;52.342;-1.290;2023-05-22T09:57:55;100871.46;;;19.60;48.23
28027;BME280;15344;52.342;-1.290;2023-05-22T10:00:22;100867.26;;;19.47;45.93
28027;BME280;15344;52.342;-1.290;2023-05-22T10:02:47;100864.41;;;19.61;47.70
28027;BME280;15344;52.342;-1.290;2023-05-22T10:05:11;100866.45;;;19.81;45.87
28027;BME280;15344;52.342;-1.290;2023-05-22T10:07:38;100863.50;;;20.49;46.18
28027;BME280;15344;52.342;-1.290;2023-05-22T10:10:03;100866.17;;;20.70;46.07
28027;BME280;15344;52.342;-1.290;2023-05-22T10:12:28;100868.20;;;20.09;44.83
28027;BME280;15344;52.342;-1.290;2023-05-22T10:14:53;100871.58;;;20.49;43.25
28027;BME280;15344;52.342;-1.290;2023-05-22T10:17:16;100870.09;;;20.02;43.21
28027;BME280;15344;52.342;-1.290;2023-05-22T10:19:41;100874.98;;;19.22;45.25
28027;BME280;15344;52.342;-1.290;2023-05-22T10:22:07;100876.55;;;21.54;42.43
28027;BME280;15344;52.342;-1.290;2023-05-22T10:24:32;100876.93;;;20.74;42.78
28027;BME280;15344;52.342;-1.290;2023-05-22T10:26:57;100876.91;;;20.12;45.14
28027;BME280;15344;52.342;-1.290;2023-05-22T10:29:26;100874.26;;;20.48;42.86
28027;BME280;15344;52.342;-1.290;2023-05-22T10:31:52;100876.03;;;19.60;43.03
28027;BME280;15344;52.342;-1.290;2023-05-22T10:34:20;100874.56;;;19.50;42.19
28027;BME280;15344;52.342;-1.290;2023-05-22T10:36:46;100877.07;;;20.25;42.73
28027;BME280;15344;52.342;-1.290;2023-05-22T10:39:11;100871.52;;;21.05;44.75
28027;BME280;15344;52.342;-1.290;2023-05-22T10:41:27;100865.76;;;22.61;44.12
28027;BME280;15344;52.342;-1.290;2023-05-22T10:43:55;100869.28;;;22.99;41.83
28027;BME280;15344;52.342;-1.290;2023-05-22T10:46:18;100864.69;;;22.61;38.51
28027;BME280;15344;52.342;-1.290;2023-05-22T10:48:45;100865.40;;;22.29;40.77
28027;BME280;15344;52.342;-1.290;2023-05-22T10:51:11;100862.77;;;23.64;37.39
28027;BME280;15344;52.342;-1.290;2023-05-22T10:53:35;100862.26;;;22.00;39.59
28027;BME280;15344;52.342;-1.290;2023-05-22T10:56:08;100870.14;;;21.46;40.11
28027;BME280;15344;52.342;-1.290;2023-05-22T10:58:29;100863.16;;;21.99;41.89
28027;BME280;15344;52.342;-1.290;2023-05-22T11:03:20;100860.17;;;22.33;40.71
28027;BME280;15344;52.342;-1.290;2023-05-22T11:05:51;100862.52;;;23.46;41.48
28027;BME280;15344;52.342;-1.290;2023-05-22T11:13:10;100861.73;;;22.66;39.51
28027;BME280;15344;52.342;-1.290;2023-05-22T11:15:30;100859.35;;;20.74;39.75
28027;BME280;15344;52.342;-1.290;2023-05-22T11:17:54;100850.27;;;22.18;37.79
28027;BME280;15344;52.342;-1.290;2023-05-22T11:20:21;100852.98;;;23.20;38.59
28027;BME280;15344;52.342;-1.290;2023-05-22T11:22:49;100846.18;;;21.89;39.64
28027;BME280;15344;52.342;-1.290;2023-05-22T11:25:15;100845.11;;;21.31;39.67
28027;BME280;15344;52.342;-1.290;2023-05-22T11:27:36;100840.78;;;21.13;40.62
28027;BME280;15344;52.342;-1.290;2023-05-22T11:30:01;100841.01;;;22.34;37.84
28027;BME280;15344;52.342;-1.290;2023-05-22T11:32:26;100844.84;;;20.22;42.69
28027;BME280;15344;52.342;-1.290;2023-05-22T11:34:51;100838.21;;;21.41;39.46
28027;BME280;15344;52.342;-1.290;2023-05-22T11:37:17;100837.14;;;21.38;39.38
28027;BME280;15344;52.342;-1.290;2023-05-22T11:39:41;100836.15;;;21.06;38.60
28027;BME280;15344;52.342;-1.290;2023-05-22T11:42:06;100836.42;;;21.77;39.37
28027;BME280;15344;52.342;-1.290;2023-05-22T11:44:31;100831.20;;;21.65;37.53
28027;BME280;15344;52.342;-1.290;2023-05-22T11:46:56;100839.68;;;21.04;40.06
28027;BME280;15344;52.342;-1.290;2023-05-22T11:49:22;100839.11;;;21.49;38.33
28027;BME280;15344;52.342;-1.290;2023-05-22T11:51:48;100845.49;;;20.99;38.52
28027;BME280;15344;52.342;-1.290;2023-05-22T11:54:12;100834.24;;;21.58;37.68
28027;BME280;15344;52.342;-1.290;2023-05-22T11:56:36;100837.13;;;21.99;36.70
28027;BME280;15344;52.342;-1.290;2023-05-22T11:59:02;100834.74;;;21.06;36.56
28027;BME280;15344;52.342;-1.290;2023-05-22T12:01:27;100835.53;;;21.29;37.58
28027;BME280;15344;52.342;-1.290;2023-05-22T12:03:51;100836.80;;;22.11;35.50
28027;BME280;15344;52.342;-1.290;2023-05-22T12:06:17;100842.98;;;21.24;36.51
28027;BME280;15344;52.342;-1.290;2023-05-22T12:08:41;100842.07;;;22.44;37.46
28027;BME280;15344;52.342;-1.290;2023-05-22T12:11:07;100838.82;;;21.90;35.90
28027;BME280;15344;52.342;-1.290;2023-05-22T12:13:32;100838.32;;;20.90;36.35
28027;BME280;15344;52.342;-1.290;2023-05-22T12:15:58;100826.42;;;21.86;38.00
28027;BME280;15344;52.342;-1.290;2023-05-22T12:18:22;100826.33;;;23.46;35.33
28027;BME280;15344;52.342;-1.290;2023-05-22T12:20:51;100824.11;;;22.92;36.77
28027;BME280;15344;52.342;-1.290;2023-05-22T12:25:37;100821.17;;;22.46;35.35
28027;BME280;15344;52.342;-1.290;2023-05-22T12:28:02;100824.23;;;21.35;35.05
28027;BME280;15344;52.342;-1.290;2023-05-22T12:30:27;100818.03;;;21.99;33.24
28027;BME280;15344;52.342;-1.290;2023-05-22T12:32:52;100821.06;;;20.43;32.51
28027;BME280;15344;52.342;-1.290;2023-05-22T12:35:17;100819.35;;;22.62;32.26
28027;BME280;15344;52.342;-1.290;2023-05-22T12:37:47;100813.67;;;22.12;31.64
28027;BME280;15344;52.342;-1.290;2023-05-22T12:40:08;100818.67;;;22.50;33.01